Time;durP1;ratioP1;P1;durP2;ratioP2;P2;SDS_P1;SDS_P2;PMS_P1;PMS_P2;Temp;Humidity;BMP_temperature;BMP_pressure;BME280_temperature;BME280_humidity;BME280_pressure;Samples;Min_cycle;Max_cycle;Signal;HPM_P1;HPM_P2
2024/01/19 00:01:48;;;;;;;6.73;4.37;;;-0.80;99.90;;;;;;4990736;28;20626;-60
2024/01/19 00:04:14;;;;;;;6.73;3.77;;;-0.80;99.90;;;;;;4990025;28;20606;-60
2024/01/19 00:06:39;;;;;;;7.33;4.33;;;-0.90;99.90;;;;;;4986505;28;20446;-60
2024/01/19 00:09:05;;;;;;;7.57;4.53;;;-0.90;99.90;;;;;;4985740;28;20287;-60
2024/01/19 00:11:31;;;;;;;9.43;4.20;;;-0.90;99.90;;;;;;4989576;28;20203;-60
2024/01/19 00:13:57;;;;;;;13.60;4.30;;;-0.90;99.90;;;;;;4987840;28;20180;-60
2024/01/19 00:16:23;;;;;;;5.53;4.50;;;-0.80;99.90;;;;;;4987498;28;20453;-60
2024/01/19 00:18:48;;;;;;;7.03;4.30;;;-0.80;99.90;;;;;;4987396;28;20240;-61
2024/01/19 00:21:15;;;;;;;13.87;4.60;;;-0.80;99.90;;;;;;4983820;28;20268;-60
2024/01/19 00:23:40;;;;;;;6.00;3.80;;;-0.80;99.90;;;;;;4982156;28;20668;-60
2024/01/19 00:26:07;;;;;;;18.30;4.87;;;-0.90;99.90;;;;;;4990644;28;20438;-60
2024/01/19 00:28:32;;;;;;;7.60;4.50;;;-0.90;99.90;;;;;;4990321;28;20733;-60
2024/01/19 00:30:58;;;;;;;7.03;4.40;;;-0.90;99.90;;;;;;4987786;28;20549;-60
2024/01/19 00:33:23;;;;;;;9.53;4.73;;;-0.90;99.90;;;;;;5004271;28;20187;-60
2024/01/19 00:35:49;;;;;;;10.70;4.77;;;-0.90;99.90;;;;;;4987888;28;20293;-60
2024/01/19 00:38:15;;;;;;;7.63;3.80;;;-0.80;99.90;;;;;;4988124;28;20185;-60
2024/01/19 00:40:40;;;;;;;11.50;4.90;;;-0.80;99.90;;;;;;4980323;28;20184;-60
2024/01/19 00:43:06;;;;;;;6.47;4.33;;;-0.90;99.90;;;;;;4984921;28;20183;-61
2024/01/19 00:45:32;;;;;;;5.20;3.47;;;-0.90;99.90;;;;;;4987445;28;20204;-59
2024/01/19 00:47:57;;;;;;;7.07;4.27;;;-0.90;99.90;;;;;;4985667;28;20235;-60
2024/01/19 00:50:23;;;;;;;6.50;3.80;;;-0.90;99.90;;;;;;4990182;28;20474;-60
2024/01/19 00:52:48;;;;;;;9.23;3.90;;;-1.00;99.90;;;;;;4989466;28;20190;-59
2024/01/19 00:55:14;;;;;;;7.93;3.73;;;-1.00;99.90;;;;;;4984484;28;20229;-60
2024/01/19 00:57:40;;;;;;;5.70;3.47;;;-1.00;99.90;;;;;;4984107;28;20171;-60
2024/01/19 01:00:06;;;;;;;6.50;3.60;;;-1.00;99.90;;;;;;4981362;28;20190;-60
2024/01/19 01:02:31;;;;;;;9.80;4.03;;;-1.00;99.90;;;;;;4986010;28;20600;-60
2024/01/19 01:04:58;;;;;;;5.80;3.90;;;-1.10;99.90;;;;;;4975788;28;21068;-60
2024/01/19 01:07:23;;;;;;;7.60;4.30;;;-1.10;99.90;;;;;;4984086;28;20190;-60
2024/01/19 01:09:49;;;;;;;6.97;4.37;;;-1.10;99.90;;;;;;4985618;28;20466;-60
2024/01/19 01:12:15;;;;;;;5.03;3.40;;;-1.10;99.90;;;;;;4987774;28;20180;-60
2024/01/19 01:14:41;;;;;;;7.00;3.47;;;-1.20;99.90;;;;;;4981605;28;20285;-60
2024/01/19 01:17:06;;;;;;;5.03;3.47;;;-1.20;99.90;;;;;;4979351;28;20173;-60
2024/01/19 01:19:32;;;;;;;6.33;4.03;;;-1.20;99.90;;;;;;4983625;28;20187;-60
2024/01/19 01:21:58;;;;;;;10.03;3.60;;;-1.20;99.90;;;;;;4984979;28;20215;-60
2024/01/19 01:24:24;;;;;;;5.83;3.30;;;-1.10;99.90;;;;;;4985306;28;20517;-59
2024/01/19 01:26:50;;;;;;;6.30;3.80;;;-1.10;99.90;;;;;;4985680;28;20458;-60
2024/01/19 01:29:16;;;;;;;5.90;3.90;;;-1.10;99.90;;;;;;4981826;28;20206;-60
2024/01/19 01:31:41;;;;;;;5.30;3.60;;;-1.10;99.90;;;;;;4984702;28;20419;-60
2024/01/19 01:34:08;;;;;;;5.50;4.00;;;-1.10;99.90;;;;;;4985116;28;20179;-60
2024/01/19 01:36:34;;;;;;;8.77;4.30;;;-1.10;99.90;;;;;;4986124;28;20301;-60
2024/01/19 01:39:00;;;;;;;6.30;3.40;;;-1.20;99.90;;;;;;4981902;28;20538;-60
2024/01/19 01:41:25;;;;;;;4.93;3.00;;;-1.20;99.90;;;;;;4982321;28;20179;-59
2024/01/19 01:43:51;;;;;;;7.00;4.03;;;-1.20;99.90;;;;;;4986530;28;20179;-60
2024/01/19 01:46:16;;;;;;;5.63;3.17;;;-1.20;99.90;;;;;;4983542;28;20199;-60
2024/01/19 01:48:42;;;;;;;4.63;3.63;;;-1.30;99.90;;;;;;4990461;28;20195;-60
2024/01/19 01:51:09;;;;;;;4.60;3.13;;;-1.30;99.90;;;;;;4980497;28;20242;-60
2024/01/19 01:53:35;;;;;;;5.90;3.37;;;-1.40;99.90;;;;;;4990198;28;20184;-60
2024/01/19 01:56:01;;;;;;;6.80;3.50;;;-1.40;99.90;;;;;;4986196;28;20444;-60
2024/01/19 01:58:27;;;;;;;5.30;4.00;;;-1.40;99.90;;;;;;4986919;28;20522;-60
2024/01/19 02:00:53;;;;;;;6.40;4.17;;;-1.50;99.90;;;;;;4980275;28;20505;-61
2024/01/19 02:03:19;;;;;;;6.90;4.17;;;-1.50;99.90;;;;;;4989160;28;20634;-60
2024/01/19 02:05:44;;;;;;;13.70;5.00;;;-1.50;99.90;;;;;;4983001;28;20441;-61
2024/01/19 02:08:10;;;;;;;7.57;4.60;;;-1.60;99.90;;;;;;4980790;28;20202;-60
2024/01/19 02:10:36;;;;;;;9.70;4.83;;;-1.60;99.90;;;;;;4992455;28;20254;-60
2024/01/19 02:13:02;;;;;;;8.47;4.57;;;-1.60;99.90;;;;;;4986195;28;20608;-60
2024/01/19 02:15:29;;;;;;;6.50;4.43;;;-1.70;99.90;;;;;;4985253;28;20669;-59
2024/01/19 02:17:54;;;;;;;7.80;4.73;;;-1.70;99.90;;;;;;4983867;28;21158;-61
2024/01/19 02:20:21;;;;;;;7.17;4.57;;;-1.70;99.90;;;;;;4989831;28;20521;-61
2024/01/19 02:22:48;;;;;;;8.67;4.53;;;-1.80;99.90;;;;;;4990613;28;20262;-60
2024/01/19 02:25:13;;;;;;;6.17;3.93;;;-1.80;99.90;;;;;;4995297;28;20953;-60
2024/01/19 02:27:40;;;;;;;9.70;5.67;;;-1.90;99.90;;;;;;4984690;28;20447;-60
2024/01/19 02:30:10;;;;;;;7.30;4.47;;;-1.90;99.90;;;;;;4983111;28;20182;-60
2024/01/19 02:32:35;;;;;;;7.93;5.10;;;-1.90;99.90;;;;;;4987874;28;20963;-60
2024/01/19 02:35:02;;;;;;;9.57;5.27;;;-1.90;99.90;;;;;;4998219;28;20477;-60
2024/01/19 02:37:27;;;;;;;10.33;5.00;;;-2.00;99.90;;;;;;4989014;28;20266;-60
2024/01/19 02:39:53;;;;;;;8.97;5.80;;;-2.00;99.90;;;;;;4986441;28;21031;-60
2024/01/19 02:42:18;;;;;;;11.90;5.20;;;-2.10;99.90;;;;;;4989824;28;20238;-60
2024/01/19 02:44:44;;;;;;;9.13;5.50;;;-2.10;99.90;;;;;;4989480;28;20277;-61
2024/01/19 02:47:10;;;;;;;11.03;5.80;;;-2.10;99.90;;;;;;4990818;28;20174;-60
2024/01/19 02:49:35;;;;;;;11.67;6.10;;;-2.10;99.90;;;;;;4988677;28;20207;-60
2024/01/19 02:52:01;;;;;;;10.60;6.00;;;-2.20;99.90;;;;;;4988238;28;20183;-60
2024/01/19 02:54:26;;;;;;;9.30;5.53;;;-2.20;99.90;;;;;;4987343;28;20182;-60
2024/01/19 02:56:52;;;;;;;12.27;6.40;;;-2.20;99.90;;;;;;4983684;28;20170;-60
2024/01/19 02:59:18;;;;;;;11.23;6.00;;;-2.20;99.90;;;;;;4993875;28;20219;-60
2024/01/19 03:01:43;;;;;;;14.17;6.10;;;-2.20;99.90;;;;;;4987290;28;20518;-60
2024/01/19 03:04:09;;;;;;;13.20;7.23;;;-2.20;99.90;;;;;;4988805;28;20243;-60
2024/01/19 03:06:35;;;;;;;12.80;6.50;;;-2.30;99.90;;;;;;4985719;28;20256;-60
2024/01/19 03:09:00;;;;;;;21.17;7.33;;;-2.30;99.90;;;;;;4991555;28;20217;-60
2024/01/19 03:11:26;;;;;;;14.13;6.87;;;-2.30;99.90;;;;;;4984026;28;20638;-60
2024/01/19 03:13:53;;;;;;;14.77;5.70;;;-2.30;99.90;;;;;;4990562;28;20188;-60
2024/01/19 03:16:19;;;;;;;12.80;6.17;;;-2.30;99.90;;;;;;4994178;28;20576;-60
2024/01/19 03:18:45;;;;;;;11.03;6.30;;;-2.30;99.90;;;;;;4996971;28;20916;-60
2024/01/19 03:21:12;;;;;;;9.63;6.53;;;-2.30;99.90;;;;;;4991319;28;20427;-60
2024/01/19 03:23:38;;;;;;;17.57;6.30;;;-2.40;99.90;;;;;;4993607;28;20460;-60
2024/01/19 03:26:04;;;;;;;12.10;5.80;;;-2.40;99.90;;;;;;4986083;28;20995;-60
2024/01/19 03:28:30;;;;;;;14.63;6.70;;;-2.40;99.90;;;;;;4989837;28;20466;-60
2024/01/19 03:30:55;;;;;;;15.90;7.63;;;-2.50;99.90;;;;;;4990591;28;20421;-60
2024/01/19 03:33:21;;;;;;;14.33;6.43;;;-2.50;99.90;;;;;;4985590;28;20186;-60
2024/01/19 03:35:47;;;;;;;10.87;6.40;;;-2.50;99.90;;;;;;4988447;28;20265;-60
2024/01/19 03:38:12;;;;;;;13.03;6.20;;;-2.50;99.90;;;;;;4991122;28;20191;-60
2024/01/19 03:40:38;;;;;;;13.80;6.83;;;-2.50;99.90;;;;;;4990758;28;20187;-60
2024/01/19 03:43:04;;;;;;;12.63;6.00;;;-2.50;99.90;;;;;;4989447;28;20186;-60
2024/01/19 03:45:29;;;;;;;9.70;5.43;;;-2.50;99.90;;;;;;4984619;28;20208;-59
2024/01/19 03:47:55;;;;;;;10.07;5.80;;;-2.60;99.90;;;;;;4985534;28;20183;-60
2024/01/19 03:50:22;;;;;;;15.10;6.37;;;-2.60;99.90;;;;;;4981779;28;20217;-60
2024/01/19 03:52:48;;;;;;;11.53;6.13;;;-2.60;99.90;;;;;;4987107;28;20544;-59
2024/01/19 03:55:15;;;;;;;13.53;6.07;;;-2.60;99.90;;;;;;4988240;28;20550;-60
2024/01/19 03:57:40;;;;;;;10.90;6.00;;;-2.60;99.90;;;;;;4988873;28;20174;-60
2024/01/19 04:00:06;;;;;;;12.13;7.23;;;-2.70;99.90;;;;;;4989249;28;20430;-60
2024/01/19 04:02:32;;;;;;;12.70;6.03;;;-2.70;99.90;;;;;;4990103;28;20179;-60
2024/01/19 04:04:58;;;;;;;12.47;5.97;;;-2.70;99.90;;;;;;4981334;28;21068;-60
2024/01/19 04:07:23;;;;;;;8.40;4.67;;;-2.70;99.90;;;;;;4985225;28;20186;-60
2024/01/19 04:09:49;;;;;;;13.60;6.10;;;-2.60;99.90;;;;;;4992277;28;20684;-59
2024/01/19 04:12:17;;;;;;;13.70;5.70;;;-2.60;99.90;;;;;;4989554;28;20179;-61
2024/01/19 04:14:44;;;;;;;11.93;5.97;;;-2.60;99.90;;;;;;4984614;28;20202;-60
2024/01/19 04:17:10;;;;;;;8.83;5.20;;;-2.60;99.90;;;;;;4988579;28;20426;-60
2024/01/19 04:19:37;;;;;;;11.47;5.40;;;-2.60;99.90;;;;;;4988968;28;21098;-60
2024/01/19 04:22:04;;;;;;;10.10;6.07;;;-2.60;99.90;;;;;;4988291;28;20437;-60
2024/01/19 04:24:29;;;;;;;13.00;6.70;;;-2.50;99.90;;;;;;4985981;28;20438;-60
2024/01/19 04:26:55;;;;;;;11.17;5.43;;;-2.50;99.90;;;;;;4974329;28;20445;-60
2024/01/19 04:29:21;;;;;;;10.10;4.80;;;-2.50;99.90;;;;;;4989810;28;20429;-60
2024/01/19 04:31:46;;;;;;;12.40;5.53;;;-2.40;99.90;;;;;;4989398;28;20183;-60
2024/01/19 04:34:12;;;;;;;12.40;5.47;;;-2.40;99.90;;;;;;4989159;28;20222;-61
2024/01/19 04:36:38;;;;;;;9.60;5.60;;;-2.40;99.90;;;;;;4987144;28;20704;-60
2024/01/19 04:39:04;;;;;;;12.10;6.27;;;-2.40;99.90;;;;;;4984371;28;20687;-61
2024/01/19 04:41:31;;;;;;;9.10;5.90;;;-2.40;99.90;;;;;;4987941;28;20185;-60
2024/01/19 04:43:56;;;;;;;15.40;5.67;;;-2.40;99.90;;;;;;4986984;28;20929;-60
2024/01/19 04:46:22;;;;;;;9.77;5.47;;;-2.40;99.90;;;;;;4982053;28;20476;-60
2024/01/19 04:48:48;;;;;;;11.43;5.97;;;-2.30;99.90;;;;;;4986724;28;20208;-60
2024/01/19 04:51:13;;;;;;;7.57;5.33;;;-2.30;99.90;;;;;;4988589;28;20648;-61
2024/01/19 04:53:39;;;;;;;6.73;4.83;;;-2.30;99.90;;;;;;4984852;28;20179;-57
2024/01/19 04:56:06;;;;;;;14.40;6.40;;;-2.30;99.90;;;;;;4988877;28;20206;-57
2024/01/19 04:58:33;;;;;;;13.43;5.43;;;-2.30;99.90;;;;;;4982947;28;20423;-57
2024/01/19 05:00:59;;;;;;;11.53;6.00;;;-2.20;99.90;;;;;;4990086;28;20421;-61
2024/01/19 05:03:25;;;;;;;11.00;5.83;;;-2.20;99.90;;;;;;4981561;28;20868;-62
2024/01/19 05:05:50;;;;;;;11.73;5.73;;;-2.20;99.90;;;;;;4981725;28;20489;-62
2024/01/19 05:08:16;;;;;;;9.00;5.70;;;-2.20;99.90;;;;;;4984127;28;20210;-61
2024/01/19 05:10:42;;;;;;;9.30;5.80;;;-2.20;99.90;;;;;;4986301;28;20680;-60
2024/01/19 05:13:07;;;;;;;10.13;5.00;;;-2.10;99.90;;;;;;4985372;28;20266;-62
2024/01/19 05:15:33;;;;;;;8.60;5.73;;;-2.10;99.90;;;;;;4985045;28;20199;-61
2024/01/19 05:18:00;;;;;;;9.90;5.87;;;-2.10;99.90;;;;;;4983693;28;20203;-62
2024/01/19 05:20:26;;;;;;;12.33;6.47;;;-2.10;99.90;;;;;;4986809;28;20674;-61
2024/01/19 05:22:52;;;;;;;9.10;5.60;;;-2.10;99.90;;;;;;4987570;28;20410;-62
2024/01/19 05:25:18;;;;;;;10.50;5.77;;;-2.10;99.90;;;;;;4988506;28;20440;-62
2024/01/19 05:27:44;;;;;;;12.63;5.63;;;-2.10;99.90;;;;;;4983830;28;20185;-61
2024/01/19 05:30:11;;;;;;;9.13;5.37;;;-2.10;99.90;;;;;;4977386;28;20434;-61
2024/01/19 05:32:37;;;;;;;12.67;5.33;;;-2.10;99.90;;;;;;4974358;28;20452;-62
2024/01/19 05:35:03;;;;;;;11.43;6.17;;;-2.10;99.90;;;;;;4986965;28;20963;-62
2024/01/19 05:37:29;;;;;;;9.63;5.90;;;-2.10;99.90;;;;;;4985380;28;20880;-62
2024/01/19 05:39:55;;;;;;;11.03;6.43;;;-2.20;99.90;;;;;;4984362;28;20789;-61
2024/01/19 05:42:20;;;;;;;12.77;7.20;;;-2.10;99.90;;;;;;4983376;28;20430;-62
2024/01/19 05:44:46;;;;;;;9.70;6.40;;;-2.10;99.90;;;;;;4984471;28;20253;-62
2024/01/19 05:47:12;;;;;;;9.83;6.00;;;-2.10;99.90;;;;;;4975837;28;20167;-61
2024/01/19 05:49:39;;;;;;;11.23;5.80;;;-2.10;99.90;;;;;;4982063;28;20333;-61
2024/01/19 05:52:05;;;;;;;13.83;6.30;;;-2.10;99.90;;;;;;4975928;28;20182;-60
2024/01/19 05:54:33;;;;;;;8.90;6.10;;;-2.10;99.90;;;;;;4984032;28;20489;-62
2024/01/19 05:56:59;;;;;;;16.20;6.10;;;-2.10;99.90;;;;;;4986488;28;20633;-62
2024/01/19 05:59:24;;;;;;;9.30;6.13;;;-2.10;99.90;;;;;;4983528;28;20462;-61
2024/01/19 06:01:50;;;;;;;9.43;5.90;;;-2.10;99.90;;;;;;4974507;28;20661;-62
2024/01/19 06:04:16;;;;;;;12.40;6.13;;;-2.00;99.90;;;;;;4984689;28;20186;-62
2024/01/19 06:06:41;;;;;;;10.20;5.80;;;-2.00;99.90;;;;;;4981542;28;20669;-62
2024/01/19 06:09:08;;;;;;;20.47;7.20;;;-2.00;99.90;;;;;;4978525;28;20191;-62
2024/01/19 06:11:33;;;;;;;12.50;6.57;;;-2.00;99.90;;;;;;4981613;28;20166;-62
2024/01/19 06:13:59;;;;;;;14.80;8.13;;;-2.00;99.90;;;;;;4983764;28;20434;-62
2024/01/19 06:16:24;;;;;;;14.30;7.80;;;-2.00;99.90;;;;;;4980446;28;20217;-60
2024/01/19 06:18:50;;;;;;;15.30;7.83;;;-2.00;99.90;;;;;;4982025;28;20207;-61
2024/01/19 06:21:15;;;;;;;14.80;8.73;;;-2.00;99.90;;;;;;4985251;28;20221;-62
2024/01/19 06:23:41;;;;;;;15.30;8.00;;;-2.00;99.90;;;;;;4987627;28;20171;-62
2024/01/19 06:26:10;;;;;;;14.87;8.30;;;-1.90;99.90;;;;;;4985182;28;20261;-62
2024/01/19 06:28:36;;;;;;;14.60;8.00;;;-1.90;99.90;;;;;;4984926;28;20242;-62
2024/01/19 06:31:03;;;;;;;18.47;8.30;;;-1.90;99.90;;;;;;4987142;28;20422;-62
2024/01/19 06:33:29;;;;;;;15.70;8.93;;;-1.90;99.90;;;;;;4982114;28;21481;-61
2024/01/19 06:35:56;;;;;;;16.97;8.37;;;-1.90;99.90;;;;;;4985784;28;20863;-62
2024/01/19 06:38:23;;;;;;;16.60;9.10;;;-1.90;99.90;;;;;;4983938;28;20529;-61
2024/01/19 06:40:49;;;;;;;14.90;7.83;;;-1.90;99.90;;;;;;4986750;28;20422;-61
2024/01/19 06:43:15;;;;;;;12.37;7.80;;;-1.90;99.90;;;;;;4978439;28;20515;-61
2024/01/19 06:45:40;;;;;;;15.03;7.90;;;-1.90;99.90;;;;;;4984914;28;20445;-61
2024/01/19 06:48:06;;;;;;;12.97;7.87;;;-1.90;99.90;;;;;;4987294;28;20730;-60
2024/01/19 06:50:32;;;;;;;14.60;8.30;;;-1.90;99.90;;;;;;4989545;28;20198;-61
2024/01/19 06:52:59;;;;;;;15.50;8.13;;;-1.90;99.90;;;;;;4991680;28;20468;-61
2024/01/19 06:55:25;;;;;;;12.77;7.53;;;-1.90;99.90;;;;;;4987307;28;20852;-62
2024/01/19 06:57:51;;;;;;;15.23;7.57;;;-1.90;99.90;;;;;;4990846;28;20418;-60
2024/01/19 07:00:18;;;;;;;14.23;7.87;;;-1.90;99.90;;;;;;4986661;28;20422;-61
2024/01/19 07:02:44;;;;;;;13.33;7.30;;;-1.90;99.90;;;;;;4983444;28;20704;-60
2024/01/19 07:05:10;;;;;;;14.80;8.27;;;-1.90;99.90;;;;;;4988699;28;20456;-62
2024/01/19 07:07:35;;;;;;;15.27;8.77;;;-1.90;99.90;;;;;;4978396;28;20179;-61
2024/01/19 07:10:01;;;;;;;16.40;8.80;;;-1.90;99.90;;;;;;4989277;28;20467;-61
2024/01/19 07:12:27;;;;;;;16.80;9.00;;;-1.90;99.90;;;;;;4989562;28;20214;-61
2024/01/19 07:14:52;;;;;;;16.17;7.77;;;-1.90;99.90;;;;;;4988260;28;20195;-62
2024/01/19 07:17:18;;;;;;;13.33;7.70;;;-2.00;99.90;;;;;;4991655;28;20274;-62
2024/01/19 07:19:43;;;;;;;16.00;8.27;;;-2.00;99.90;;;;;;4991595;28;20691;-62
2024/01/19 07:22:09;;;;;;;16.67;7.73;;;-2.00;99.90;;;;;;4988824;28;20179;-62
2024/01/19 07:24:35;;;;;;;19.30;7.30;;;-2.00;99.90;;;;;;4990846;28;20186;-62
2024/01/19 07:27:04;;;;;;;14.43;7.07;;;-2.00;99.90;;;;;;4987098;28;20179;-62
2024/01/19 07:29:33;;;;;;;21.97;6.77;;;-2.00;99.90;;;;;;4980996;28;20821;-62
2024/01/19 07:31:59;;;;;;;15.73;8.53;;;-2.00;99.90;;;;;;4985386;28;20484;-62
2024/01/19 07:34:25;;;;;;;16.60;8.03;;;-2.00;99.90;;;;;;4987817;28;20446;-62
2024/01/19 07:36:51;;;;;;;17.20;7.73;;;-2.00;99.90;;;;;;4987093;28;20432;-62
2024/01/19 07:39:23;;;;;;;17.00;8.20;;;-1.90;99.90;;;;;;4987925;28;20176;-62
2024/01/19 07:41:49;;;;;;;19.60;8.40;;;-1.90;99.90;;;;;;4990266;28;20411;-62
2024/01/19 07:44:15;;;;;;;17.10;9.50;;;-1.90;99.90;;;;;;4984627;28;20437;-62
2024/01/19 07:46:41;;;;;;;23.03;10.13;;;-1.90;99.90;;;;;;4985249;28;20935;-62
2024/01/19 07:49:06;;;;;;;15.27;8.40;;;-1.90;99.90;;;;;;4987120;28;20211;-62
2024/01/19 07:51:32;;;;;;;16.63;9.07;;;-1.90;99.90;;;;;;4988109;28;20437;-61
2024/01/19 07:53:58;;;;;;;13.67;7.73;;;-1.90;99.90;;;;;;4983005;28;20184;-63
2024/01/19 07:56:23;;;;;;;15.37;8.13;;;-1.90;99.90;;;;;;4987759;28;20682;-63
2024/01/19 07:58:49;;;;;;;24.43;8.97;;;-1.80;99.90;;;;;;4986130;28;20215;-62
2024/01/19 08:01:15;;;;;;;10.33;6.50;;;-1.80;99.90;;;;;;4985675;28;20186;-62
2024/01/19 08:03:40;;;;;;;12.60;6.33;;;-1.70;99.90;;;;;;4983619;28;20191;-62
2024/01/19 08:06:06;;;;;;;13.80;6.50;;;-1.70;99.90;;;;;;4983904;28;20199;-62
2024/01/19 08:08:32;;;;;;;17.33;6.70;;;-1.70;99.90;;;;;;4985597;28;20254;-62
2024/01/19 08:10:57;;;;;;;29.20;11.03;;;-1.70;99.90;;;;;;4989551;28;20646;-61
2024/01/19 08:13:23;;;;;;;28.00;11.07;;;-1.70;99.90;;;;;;4989268;28;20183;-62
2024/01/19 08:15:48;;;;;;;14.37;6.53;;;-1.70;99.90;;;;;;4997239;28;20195;-61
2024/01/19 08:18:14;;;;;;;10.10;5.10;;;-1.70;99.90;;;;;;4983192;28;20662;-62
2024/01/19 08:20:40;;;;;;;11.53;4.97;;;-1.70;99.90;;;;;;4984007;28;20274;-62
2024/01/19 08:23:05;;;;;;;8.17;5.20;;;-1.60;99.90;;;;;;4984694;28;20210;-62
2024/01/19 08:25:31;;;;;;;7.93;5.10;;;-1.70;99.90;;;;;;4985763;28;20290;-62
2024/01/19 08:27:57;;;;;;;15.70;6.93;;;-1.70;99.90;;;;;;4983548;28;20186;-62
2024/01/19 08:30:23;;;;;;;12.53;6.90;;;-1.70;99.90;;;;;;4986715;28;20426;-62
2024/01/19 08:32:48;;;;;;;12.50;7.17;;;-1.60;99.90;;;;;;4983609;28;20187;-62
2024/01/19 08:35:14;;;;;;;13.83;7.37;;;-1.60;99.90;;;;;;4983560;28;20639;-62
2024/01/19 08:37:41;;;;;;;16.60;7.43;;;-1.60;99.90;;;;;;4985363;28;20266;-62
2024/01/19 08:40:08;;;;;;;14.40;7.23;;;-1.50;99.90;;;;;;4983997;28;20270;-62
2024/01/19 08:42:33;;;;;;;12.70;7.40;;;-1.50;99.90;;;;;;4984415;28;20533;-62
2024/01/19 08:44:59;;;;;;;15.43;6.70;;;-1.50;99.90;;;;;;4984635;28;20533;-63
2024/01/19 08:47:28;;;;;;;11.00;6.93;;;-1.40;99.90;;;;;;4987366;28;20186;-62
2024/01/19 08:49:54;;;;;;;10.67;6.47;;;-1.40;99.90;;;;;;4980143;28;20294;-62
2024/01/19 08:52:19;;;;;;;8.47;5.50;;;-1.30;99.90;;;;;;4982789;28;20957;-62
2024/01/19 08:54:45;;;;;;;7.90;4.90;;;-1.20;99.90;;;;;;4979564;28;20200;-62
2024/01/19 08:57:10;;;;;;;6.53;4.80;;;-1.20;99.90;;;;;;4999186;28;20258;-62
2024/01/19 08:59:36;;;;;;;10.60;5.27;;;-1.20;99.90;;;;;;4988060;28;20235;-62
2024/01/19 09:02:02;;;;;;;9.73;6.27;;;-1.10;99.90;;;;;;4986260;28;20186;-62
2024/01/19 09:04:27;;;;;;;13.87;6.90;;;-1.10;99.90;;;;;;4983299;28;20261;-62
2024/01/19 09:06:57;;;;;;;15.73;6.40;;;-1.10;99.90;;;;;;4984366;28;20177;-62
2024/01/19 09:09:23;;;;;;;13.00;7.17;;;-1.00;99.90;;;;;;4986952;28;20297;-62
2024/01/19 09:11:49;;;;;;;14.67;7.37;;;-0.90;99.90;;;;;;4978852;28;20518;-61
2024/01/19 09:14:15;;;;;;;11.60;6.20;;;-0.90;99.90;;;;;;4984126;28;20179;-62
2024/01/19 09:16:44;;;;;;;15.80;5.93;;;-0.90;99.90;;;;;;4982676;28;20465;-62
2024/01/19 09:19:14;;;;;;;15.40;8.40;;;-0.90;99.90;;;;;;4982852;28;20450;-62
2024/01/19 09:21:44;;;;;;;9.10;5.20;;;-0.80;99.90;;;;;;4986754;28;20418;-62
2024/01/19 09:24:10;;;;;;;13.33;5.40;;;-0.80;99.90;;;;;;4985184;28;20469;-62
2024/01/19 09:26:35;;;;;;;6.60;4.23;;;-0.60;99.90;;;;;;4986728;28;20439;-62
2024/01/19 09:29:01;;;;;;;7.20;4.20;;;-0.50;99.90;;;;;;4983438;28;21188;-62
2024/01/19 09:31:27;;;;;;;6.70;4.93;;;-0.50;99.90;;;;;;4985429;28;20545;-62
2024/01/19 09:33:52;;;;;;;6.63;4.10;;;-0.50;99.90;;;;;;5001664;28;20225;-62
2024/01/19 09:36:18;;;;;;;5.00;3.30;;;-0.50;99.90;;;;;;4982980;28;20215;-62
2024/01/19 09:38:43;;;;;;;7.30;3.70;;;-0.40;99.90;;;;;;5001705;28;20212;-62
2024/01/19 09:41:30;;;;;;;21.30;9.13;;;-0.40;99.90;;;;;;4986157;28;20872;-62
2024/01/19 09:43:58;;;;;;;7.87;4.50;;;-0.40;99.90;;;;;;4985923;28;22584;-62
2024/01/19 09:46:28;;;;;;;4.00;3.37;;;-0.40;96.30;;;;;;4982242;28;20455;-62
2024/01/19 09:49:16;;;;;;;4.93;3.80;;;-0.40;95.10;;;;;;4985356;28;20473;-62
2024/01/19 09:51:50;;;;;;;6.40;3.50;;;-0.40;96.30;;;;;;4986388;28;20513;-62
2024/01/19 09:54:22;;;;;;;6.23;4.23;;;-0.40;96.60;;;;;;4984865;28;20899;-61
2024/01/19 09:56:47;;;;;;;6.60;4.20;;;-0.40;95.20;;;;;;4983606;28;20473;-61
2024/01/19 09:59:15;;;;;;;8.23;3.80;;;-0.40;93.60;;;;;;4986862;28;21115;-60
2024/01/19 10:01:41;;;;;;;7.40;4.50;;;-0.40;94.50;;;;;;4990372;28;20679;-60
2024/01/19 10:04:12;;;;;;;8.70;4.90;;;-0.40;96.60;;;;;;4988616;28;20436;-60
2024/01/19 10:06:38;;;;;;;9.30;4.90;;;-0.40;96.80;;;;;;4986418;28;20199;-60
2024/01/19 10:09:05;;;;;;;4.73;3.77;;;-0.30;97.30;;;;;;4989727;28;20469;-61
2024/01/19 10:11:30;;;;;;;6.47;4.23;;;-0.30;96.80;;;;;;4991652;28;20442;-61
2024/01/19 10:13:56;;;;;;;5.57;4.50;;;-0.30;95.20;;;;;;4991529;28;20423;-62
2024/01/19 10:16:22;;;;;;;7.40;3.97;;;-0.40;94.20;;;;;;4986636;28;20608;-61
2024/01/19 10:18:49;;;;;;;5.77;4.30;;;-0.40;95.30;;;;;;5005439;28;20447;-62
2024/01/19 10:21:27;;;;;;;7.97;5.00;;;-0.40;95.20;;;;;;4983271;28;20202;-61
2024/01/19 10:24:19;;;;;;;10.70;4.80;;;-0.30;94.80;;;;;;4989737;28;20418;-61
2024/01/19 10:26:55;;;;;;;10.67;5.23;;;-0.30;95.40;;;;;;4991205;28;20520;-61
2024/01/19 10:29:22;;;;;;;5.33;4.03;;;-0.30;95.60;;;;;;4992515;28;21067;-62
2024/01/19 10:31:49;;;;;;;5.70;4.33;;;-0.20;94.30;;;;;;4990163;28;20962;-61
2024/01/19 10:34:17;;;;;;;5.97;4.23;;;-0.20;94.00;;;;;;4993602;28;22108;-62
2024/01/19 10:36:44;;;;;;;7.27;4.30;;;-0.10;91.50;;;;;;4992088;28;20562;-62
2024/01/19 10:39:30;;;;;;;5.83;3.93;;;-0.10;88.30;;;;;;4990165;28;20978;-62
2024/01/19 10:42:06;;;;;;;6.90;4.10;;;0.00;81.40;;;;;;4986431;28;20450;-62
2024/01/19 10:44:32;;;;;;;4.60;3.90;;;0.00;80.30;;;;;;4986135;28;21129;-61
2024/01/19 10:46:58;;;;;;;15.73;4.40;;;0.00;78.80;;;;;;4990751;28;20433;-61
2024/01/19 10:49:24;;;;;;;7.53;4.43;;;0.00;81.60;;;;;;4992743;28;20478;-62
2024/01/19 10:51:50;;;;;;;6.83;3.70;;;0.00;79.70;;;;;;4989456;28;20765;-61
2024/01/19 10:54:24;;;;;;;8.73;3.40;;;0.10;73.50;;;;;;4986810;28;20179;-61
2024/01/19 10:57:06;;;;;;;4.90;3.40;;;0.10;71.20;;;;;;4989413;28;20680;-61
2024/01/19 10:59:34;;;;;;;5.23;3.80;;;0.10;71.60;;;;;;4984769;28;20864;-62
2024/01/19 11:02:01;;;;;;;5.37;3.93;;;0.10;69.60;;;;;;4983841;28;20969;-61
2024/01/19 11:04:27;;;;;;;4.17;3.33;;;0.10;68.70;;;;;;4989488;28;20476;-61
2024/01/19 11:06:53;;;;;;;7.10;3.80;;;0.10;69.00;;;;;;5001784;28;20470;-62
2024/01/19 11:09:19;;;;;;;4.10;3.30;;;0.20;70.10;;;;;;4987084;28;20349;-62
2024/01/19 11:11:53;;;;;;;5.40;3.23;;;0.30;67.90;;;;;;4983810;28;20639;-62
2024/01/19 11:14:24;;;;;;;4.43;3.23;;;0.30;66.00;;;;;;4981304;28;20229;-62
2024/01/19 11:16:52;;;;;;;5.20;3.73;;;0.30;67.60;;;;;;4985304;28;21088;-61
2024/01/19 11:19:20;;;;;;;4.40;3.50;;;0.30;68.90;;;;;;4983772;28;20498;-61
2024/01/19 11:21:46;;;;;;;5.33;3.53;;;0.30;67.60;;;;;;5001676;28;20470;-61
2024/01/19 11:24:14;;;;;;;7.47;3.77;;;0.30;66.10;;;;;;4978817;28;20473;-61
2024/01/19 11:26:42;;;;;;;6.73;3.50;;;0.30;66.40;;;;;;4976012;28;20840;-58
2024/01/19 11:29:30;;;;;;;6.33;3.70;;;0.20;66.10;;;;;;4979138;28;20462;-61
2024/01/19 11:31:57;;;;;;;5.60;3.17;;;0.20;70.90;;;;;;4983580;28;20521;-61
2024/01/19 11:34:41;;;;;;;5.87;3.43;;;0.20;71.20;;;;;;4985172;28;20443;-62
2024/01/19 11:37:07;;;;;;;4.37;3.50;;;0.30;71.70;;;;;;4984070;28;20501;-61
2024/01/19 11:39:43;;;;;;;4.13;3.10;;;0.30;70.30;;;;;;4986666;28;20430;-62
2024/01/19 11:42:29;;;;;;;5.43;3.27;;;0.40;62.80;;;;;;4986920;28;20442;-62
2024/01/19 11:44:54;;;;;;;3.50;2.90;;;0.40;60.70;;;;;;4980548;28;20640;-62
2024/01/19 11:47:35;;;;;;;4.10;3.00;;;0.50;58.70;;;;;;4982175;28;20529;-62
2024/01/19 11:50:09;;;;;;;7.80;3.40;;;0.60;54.60;;;;;;4980139;28;20207;-62
2024/01/19 11:52:38;;;;;;;3.83;3.10;;;0.60;53.60;;;;;;4985151;28;20482;-62
2024/01/19 11:55:25;;;;;;;5.70;3.37;;;0.50;54.80;;;;;;4985232;28;20458;-59
2024/01/19 11:57:50;;;;;;;5.53;3.63;;;0.60;55.80;;;;;;4981268;28;20445;-58
2024/01/19 12:00:16;;;;;;;5.00;3.60;;;0.70;55.60;;;;;;4985809;28;21169;-58
2024/01/19 12:02:44;;;;;;;6.23;3.17;;;0.90;55.90;;;;;;4985803;28;20904;-61
2024/01/19 12:05:11;;;;;;;5.37;3.23;;;1.10;55.40;;;;;;4979211;28;20703;-61
2024/01/19 12:07:36;;;;;;;4.03;3.27;;;1.30;54.40;;;;;;4979117;28;20447;-62
2024/01/19 12:10:15;;;;;;;3.47;3.00;;;1.30;53.20;;;;;;4981567;28;20474;-62
2024/01/19 12:12:41;;;;;;;4.63;3.67;;;1.40;54.30;;;;;;4985000;28;20184;-61
2024/01/19 12:15:09;;;;;;;3.13;2.83;;;1.40;55.50;;;;;;4984047;28;21138;-60
2024/01/19 12:17:40;;;;;;;4.87;3.53;;;1.40;56.00;;;;;;4982133;28;20523;-60
2024/01/19 12:20:09;;;;;;;6.70;3.00;;;1.30;56.20;;;;;;4981544;28;20443;-61
2024/01/19 12:22:35;;;;;;;4.93;3.37;;;1.20;56.10;;;;;;4977007;28;20432;-61
2024/01/19 12:25:13;;;;;;;3.80;3.40;;;1.10;56.40;;;;;;4981794;28;20467;-61
2024/01/19 12:27:39;;;;;;;5.13;3.13;;;1.00;57.60;;;;;;4986760;28;20415;-60
2024/01/19 12:30:12;;;;;;;7.43;3.60;;;1.00;58.20;;;;;;4980147;28;21096;-61
2024/01/19 12:32:38;;;;;;;4.53;3.57;;;0.90;59.10;;;;;;4987728;28;20184;-60
2024/01/19 12:35:04;;;;;;;4.50;3.43;;;0.90;58.20;;;;;;4983633;28;20467;-60
2024/01/19 12:37:30;;;;;;;3.97;3.13;;;0.80;58.00;;;;;;4985269;28;20190;-61
2024/01/19 12:40:15;;;;;;;4.20;3.30;;;0.70;57.60;;;;;;4983835;28;20829;-61
2024/01/19 12:42:44;;;;;;;4.60;3.43;;;0.70;58.70;;;;;;4987237;28;20618;-61